Time;durP1;ratioP1;P1;durP2;ratioP2;P2;SDS_P1;SDS_P2;PMS_P1;PMS_P2;Temp;Humidity;BMP_temperature;BMP_pressure;BME280_temperature;BME280_humidity;BME280_pressure;Samples;Min_cycle;Max_cycle;Signal;HPM_P1;HPM_P2
2021/12/08 00:01:25;;;;;;;6.47;3.27;;;3.60;99.90;;;;;;5072815;28;20202;-66
2021/12/08 00:03:53;;;;;;;5.33;3.17;;;3.50;99.90;;;;;;5071166;28;20212;-65
2021/12/08 00:06:22;;;;;;;7.57;3.90;;;3.40;99.90;;;;;;5071972;28;20203;-66
2021/12/08 00:09:01;;;;;;;7.07;3.23;;;3.30;99.90;;;;;;5068390;28;20191;-66
2021/12/08 00:14:15;;;;;;;6.23;3.30;;;3.40;99.90;;;;;;5066496;28;20197;-66
2021/12/08 00:16:42;;;;;;;6.57;3.30;;;3.50;99.90;;;;;;5060269;28;20210;-65
2021/12/08 00:19:09;;;;;;;8.23;3.60;;;3.30;99.90;;;;;;5068571;28;20206;-66
2021/12/08 00:21:37;;;;;;;6.87;3.43;;;3.30;99.90;;;;;;5054151;28;20750;-66
2021/12/08 00:24:05;;;;;;;6.17;3.67;;;3.30;99.90;;;;;;5067454;28;20566;-66
2021/12/08 00:26:32;;;;;;;8.07;3.40;;;3.30;99.90;;;;;;5058351;28;20195;-66
2021/12/08 00:28:58;;;;;;;10.30;4.43;;;3.30;99.90;;;;;;5060611;28;20201;-66
2021/12/08 00:31:26;;;;;;;7.80;3.80;;;3.30;99.90;;;;;;5060290;28;20671;-66
2021/12/08 00:33:52;;;;;;;6.17;3.60;;;3.20;99.90;;;;;;5084282;28;20302;-65
2021/12/08 00:36:27;;;;;;;7.07;3.43;;;3.30;99.90;;;;;;5072808;28;20191;-65
2021/12/08 00:38:55;;;;;;;6.60;3.67;;;3.30;99.90;;;;;;5085782;28;20673;-65
2021/12/08 00:41:22;;;;;;;11.17;3.93;;;3.30;99.90;;;;;;5084492;28;20225;-66
2021/12/08 00:43:48;;;;;;;7.00;3.20;;;3.40;99.90;;;;;;5071726;28;20668;-66
2021/12/08 00:46:15;;;;;;;9.57;3.93;;;3.40;99.90;;;;;;5076822;28;20221;-65
2021/12/08 00:48:48;;;;;;;7.83;3.70;;;3.40;99.90;;;;;;5073436;28;20210;-66
2021/12/08 00:51:15;;;;;;;7.40;3.20;;;3.40;99.90;;;;;;5071194;28;20675;-66
2021/12/08 00:53:42;;;;;;;6.27;3.30;;;3.40;99.90;;;;;;5070900;28;20195;-66
2021/12/08 00:56:10;;;;;;;6.57;3.43;;;3.40;99.90;;;;;;5065562;28;20195;-66
2021/12/08 00:58:37;;;;;;;6.27;3.37;;;3.40;99.90;;;;;;5055324;28;20722;-66
2021/12/08 01:01:06;;;;;;;7.70;3.27;;;3.40;99.90;;;;;;5072269;28;20220;-66
2021/12/08 01:03:33;;;;;;;6.90;3.37;;;3.40;99.90;;;;;;5070423;28;20194;-65
2021/12/08 01:06:00;;;;;;;8.20;3.70;;;3.40;99.90;;;;;;5087185;28;20237;-66
2021/12/08 01:08:29;;;;;;;5.50;3.50;;;3.30;99.90;;;;;;5072598;28;20206;-66
2021/12/08 01:11:00;;;;;;;4.93;3.33;;;3.30;99.90;;;;;;5053920;28;20199;-66
2021/12/08 01:13:28;;;;;;;7.87;3.50;;;3.30;99.90;;;;;;5052942;28;20202;-65
2021/12/08 01:15:58;;;;;;;5.30;3.37;;;3.40;99.90;;;;;;5055797;28;20187;-66
2021/12/08 01:18:26;;;;;;;10.40;3.47;;;3.50;99.90;;;;;;5071583;28;20674;-66
2021/12/08 01:20:54;;;;;;;5.50;3.47;;;3.50;99.90;;;;;;5072388;28;20198;-65
2021/12/08 01:23:21;;;;;;;6.50;3.20;;;3.60;99.90;;;;;;5064404;28;20566;-65
2021/12/08 01:25:49;;;;;;;9.63;3.40;;;3.60;99.90;;;;;;5056837;28;20223;-66
2021/12/08 01:28:20;;;;;;;4.37;3.27;;;3.50;99.90;;;;;;5065893;28;20205;-66
2021/12/08 01:30:49;;;;;;;6.90;3.47;;;3.50;99.90;;;;;;5069379;28;20506;-66
2021/12/08 01:33:17;;;;;;;7.40;3.33;;;3.50;99.90;;;;;;5065601;28;20251;-66
2021/12/08 01:35:44;;;;;;;6.03;3.50;;;3.50;99.90;;;;;;5054389;28;20209;-66
2021/12/08 01:38:11;;;;;;;5.50;3.60;;;3.50;99.90;;;;;;5051421;28;20210;-66
2021/12/08 01:40:38;;;;;;;6.47;3.27;;;3.40;99.90;;;;;;5068608;28;20673;-66
2021/12/08 01:43:12;;;;;;;9.77;3.87;;;3.40;99.90;;;;;;5064070;28;20206;-66
2021/12/08 01:48:25;;;;;;;5.70;2.60;;;3.40;99.90;;;;;;5057470;28;20304;-66
2021/12/08 01:50:55;;;;;;;5.57;2.27;;;3.40;99.90;;;;;;5067893;28;20206;-66
2021/12/08 01:53:23;;;;;;;4.63;2.10;;;3.60;99.90;;;;;;5067280;28;20199;-66
2021/12/08 01:55:50;;;;;;;6.57;2.17;;;3.80;99.90;;;;;;5075392;28;20198;-66
2021/12/08 01:58:18;;;;;;;6.70;2.60;;;4.00;99.90;;;;;;5075354;28;20206;-66
2021/12/08 02:00:49;;;;;;;5.73;2.43;;;3.90;99.90;;;;;;5075956;28;20212;-66
2021/12/08 02:03:17;;;;;;;2.90;2.27;;;3.90;99.90;;;;;;5079397;28;20195;-66
2021/12/08 02:05:45;;;;;;;3.40;2.50;;;3.90;99.90;;;;;;5074728;28;20229;-66
2021/12/08 02:08:12;;;;;;;3.87;2.20;;;4.10;99.90;;;;;;5075258;28;20208;-66
2021/12/08 02:10:41;;;;;;;9.13;2.90;;;4.00;99.90;;;;;;5071399;28;20198;-66
2021/12/08 02:13:08;;;;;;;7.33;2.20;;;4.10;99.90;;;;;;5062110;28;20237;-66
2021/12/08 02:15:36;;;;;;;9.93;3.47;;;4.10;99.90;;;;;;5073395;28;20202;-66
2021/12/08 02:18:05;;;;;;;4.37;2.50;;;4.10;99.90;;;;;;5074567;28;20212;-66
2021/12/08 02:20:32;;;;;;;5.93;2.30;;;4.10;99.90;;;;;;5059492;28;20653;-66
2021/12/08 02:23:00;;;;;;;5.10;2.67;;;4.10;99.90;;;;;;5071639;28;20204;-66
2021/12/08 02:25:28;;;;;;;4.93;2.57;;;4.10;99.90;;;;;;5077739;28;20684;-66
2021/12/08 02:27:57;;;;;;;4.93;2.73;;;4.10;99.90;;;;;;5074941;28;20205;-66
2021/12/08 02:30:31;;;;;;;7.83;2.50;;;4.10;99.90;;;;;;5074925;28;20202;-66
2021/12/08 02:47:11;;;;;;;6.27;2.63;;;3.90;99.90;;;;;;5073895;28;20675;-70
2021/12/08 02:49:39;;;;;;;5.77;2.80;;;3.90;99.90;;;;;;5074640;28;20213;-70
2021/12/08 02:52:08;;;;;;;5.10;2.67;;;3.90;99.90;;;;;;5073189;28;20206;-70
2021/12/08 02:54:39;;;;;;;9.10;2.60;;;3.90;99.90;;;;;;5074674;28;20198;-70
2021/12/08 02:57:06;;;;;;;6.83;2.50;;;3.90;99.90;;;;;;5073252;28;20682;-70
2021/12/08 02:59:33;;;;;;;8.90;2.70;;;3.90;99.90;;;;;;5092890;28;20205;-71
2021/12/08 03:02:01;;;;;;;5.90;2.70;;;3.90;99.90;;;;;;5073621;28;20198;-70
2021/12/08 03:04:28;;;;;;;5.17;2.60;;;3.90;99.90;;;;;;5074515;28;20209;-70
2021/12/08 03:06:55;;;;;;;9.33;2.60;;;3.80;99.90;;;;;;5080154;28;20229;-70
2021/12/08 03:09:22;;;;;;;4.80;2.70;;;3.80;99.90;;;;;;5074316;28;20202;-70
2021/12/08 03:11:53;;;;;;;4.20;2.50;;;3.80;99.90;;;;;;5073269;28;20829;-70
2021/12/08 03:14:21;;;;;;;5.07;2.60;;;3.80;99.90;;;;;;5073080;28;20667;-69
2021/12/08 03:16:50;;;;;;;5.90;2.50;;;3.80;99.90;;;;;;5060712;28;20203;-71
2021/12/08 03:19:17;;;;;;;6.83;3.03;;;3.80;99.90;;;;;;5054608;28;20203;-70
2021/12/08 03:21:44;;;;;;;6.93;2.90;;;3.70;99.90;;;;;;5063822;28;20198;-69
2021/12/08 03:24:21;;;;;;;5.37;2.70;;;3.80;99.90;;;;;;5073368;28;20641;-70
2021/12/08 03:26:54;;;;;;;4.43;2.90;;;3.80;99.90;;;;;;5072877;28;20422;-69
2021/12/08 03:29:31;;;;;;;5.30;2.83;;;3.80;99.90;;;;;;5076657;28;20653;-70
2021/12/08 03:32:05;;;;;;;6.00;2.57;;;3.80;99.90;;;;;;5081421;28;20202;-70
2021/12/08 03:34:36;;;;;;;4.63;2.60;;;3.80;99.90;;;;;;5073171;28;20666;-70
2021/12/08 03:37:04;;;;;;;4.87;2.77;;;3.90;99.90;;;;;;5069923;28;20230;-70
2021/12/08 03:39:31;;;;;;;4.00;2.20;;;3.90;99.90;;;;;;5073636;28;20205;-70
2021/12/08 03:41:58;;;;;;;4.57;2.00;;;3.90;99.90;;;;;;5072203;28;20660;-70
2021/12/08 03:44:26;;;;;;;4.10;2.20;;;4.00;99.90;;;;;;5079832;28;20204;-70
2021/12/08 03:46:59;;;;;;;6.17;2.40;;;4.00;99.90;;;;;;5073119;28;20228;-70
2021/12/08 03:49:27;;;;;;;3.27;2.17;;;4.00;99.90;;;;;;5073219;28;20190;-70
2021/12/08 03:51:57;;;;;;;4.73;2.50;;;4.10;99.90;;;;;;5074420;28;20202;-70
2021/12/08 03:54:23;;;;;;;5.67;2.50;;;4.10;99.90;;;;;;5073373;28;20209;-70
2021/12/08 03:56:50;;;;;;;2.53;2.30;;;4.10;99.90;;;;;;5072564;28;20205;-70
2021/12/08 03:59:17;;;;;;;5.40;2.50;;;4.20;99.90;;;;;;5060280;28;20565;-70
2021/12/08 04:01:45;;;;;;;6.57;3.00;;;4.10;99.90;;;;;;5069625;28;20198;-70
2021/12/08 04:04:13;;;;;;;6.17;2.27;;;4.00;99.90;;;;;;5073239;28;20589;-70
2021/12/08 04:06:46;;;;;;;5.47;2.60;;;4.00;99.90;;;;;;5067309;28;20672;-69
2021/12/08 04:09:24;;;;;;;3.43;2.27;;;3.90;99.90;;;;;;5082041;28;20230;-70
2021/12/08 04:11:51;;;;;;;4.20;2.43;;;3.90;99.90;;;;;;5072158;28;20198;-69
2021/12/08 04:14:21;;;;;;;9.13;2.80;;;3.90;99.90;;;;;;5073480;28;20229;-69
2021/12/08 04:16:56;;;;;;;3.27;2.50;;;3.90;99.90;;;;;;5072671;28;20199;-69
2021/12/08 04:19:23;;;;;;;5.47;2.50;;;3.80;99.90;;;;;;5072395;28;20241;-70
2021/12/08 04:21:54;;;;;;;6.33;2.53;;;3.90;99.90;;;;;;5069053;28;20649;-70
2021/12/08 04:24:21;;;;;;;4.80;2.60;;;3.80;99.90;;;;;;5055230;28;20657;-70
2021/12/08 04:26:52;;;;;;;7.77;2.80;;;3.80;99.90;;;;;;5072131;28;20210;-69
2021/12/08 04:29:20;;;;;;;5.23;2.17;;;3.80;99.90;;;;;;5073099;28;20227;-70
2021/12/08 04:31:50;;;;;;;5.83;2.40;;;3.70;99.90;;;;;;5065095;28;20191;-70
2021/12/08 04:34:23;;;;;;;7.90;3.20;;;3.60;99.90;;;;;;5052903;28;20203;-70
2021/12/08 04:36:53;;;;;;;8.73;2.97;;;3.60;99.90;;;;;;5060580;28;20224;-70
2021/12/08 04:39:25;;;;;;;3.87;2.40;;;3.50;99.90;;;;;;5071795;28;20578;-70
2021/12/08 04:41:59;;;;;;;6.30;2.80;;;3.50;99.90;;;;;;5071548;28;20656;-70
2021/12/08 04:44:33;;;;;;;6.80;3.00;;;3.50;99.90;;;;;;5072789;28;20202;-70
2021/12/08 04:47:23;;;;;;;5.90;2.93;;;3.40;99.90;;;;;;5071913;28;20219;-70
2021/12/08 04:50:29;;;;;;;8.13;2.83;;;3.40;99.90;;;;;;5052846;28;20649;-70
2021/12/08 04:53:03;;;;;;;6.43;2.97;;;3.50;99.90;;;;;;5051683;28;20218;-70
2021/12/08 05:01:17;;;;;;;4.77;2.80;;;3.40;99.90;;;;;;5072166;28;20205;-70
2021/12/08 05:06:40;;;;;;;3.40;2.70;;;3.40;99.90;;;;;;5058955;28;20249;-69
2021/12/08 05:09:11;;;;;;;5.07;2.60;;;3.40;99.90;;;;;;5072608;28;20581;-70
2021/12/08 05:11:42;;;;;;;4.00;2.47;;;3.40;99.90;;;;;;5072015;28;20202;-70
2021/12/08 05:14:15;;;;;;;3.67;2.47;;;3.40;99.90;;;;;;5071854;28;20202;-69
2021/12/08 05:16:45;;;;;;;5.40;3.13;;;3.50;99.90;;;;;;5071861;28;20292;-69
2021/12/08 05:19:18;;;;;;;4.87;3.17;;;3.50;99.90;;;;;;5071532;28;20213;-70
2021/12/08 05:21:48;;;;;;;6.30;3.10;;;3.50;99.90;;;;;;5071477;28;20209;-70
2021/12/08 05:24:19;;;;;;;5.00;2.90;;;3.50;99.90;;;;;;5071781;28;20202;-70
2021/12/08 05:26:51;;;;;;;7.13;3.10;;;3.50;99.90;;;;;;5072102;28;20218;-70
2021/12/08 05:29:21;;;;;;;6.97;3.73;;;3.40;99.90;;;;;;5071235;28;20208;-69
2021/12/08 05:31:49;;;;;;;7.57;3.23;;;3.50;99.90;;;;;;5071177;28;20204;-69
2021/12/08 05:34:18;;;;;;;4.63;2.77;;;3.50;99.90;;;;;;5071938;28;20288;-70
2021/12/08 05:36:45;;;;;;;6.53;3.43;;;3.50;99.90;;;;;;5072133;28;20205;-69
2021/12/08 05:39:20;;;;;;;7.90;3.70;;;3.50;99.90;;;;;;5071886;28;20202;-70
2021/12/08 05:41:51;;;;;;;5.13;3.20;;;3.50;99.90;;;;;;5071096;28;20220;-70
2021/12/08 05:44:17;;;;;;;4.70;2.70;;;3.40;99.90;;;;;;5072262;28;20202;-70
2021/12/08 05:46:48;;;;;;;5.53;3.07;;;3.50;99.90;;;;;;5071257;28;20225;-70
2021/12/08 05:49:18;;;;;;;5.57;3.53;;;3.50;99.90;;;;;;5071900;28;20183;-70
2021/12/08 05:51:47;;;;;;;4.33;3.03;;;3.50;99.90;;;;;;5071523;28;20664;-69
2021/12/08 05:54:17;;;;;;;5.57;3.27;;;3.40;99.90;;;;;;5071458;28;20213;-70
2021/12/08 05:56:44;;;;;;;5.23;3.20;;;3.50;99.90;;;;;;5069922;28;20198;-70
2021/12/08 05:59:13;;;;;;;5.17;3.50;;;3.50;99.90;;;;;;5071485;28;20637;-65
2021/12/08 06:01:44;;;;;;;4.57;3.30;;;3.60;99.90;;;;;;5071045;28;20206;-65
2021/12/08 06:04:12;;;;;;;5.37;3.23;;;3.50;99.90;;;;;;5071839;28;20217;-66
2021/12/08 06:06:42;;;;;;;5.83;3.10;;;3.50;99.90;;;;;;5071515;28;20226;-65
2021/12/08 06:09:12;;;;;;;5.00;3.03;;;3.60;99.90;;;;;;5070981;28;20289;-65
2021/12/08 06:11:39;;;;;;;4.90;3.10;;;3.60;99.90;;;;;;5070720;28;20565;-66
2021/12/08 06:14:07;;;;;;;7.00;3.63;;;3.50;99.90;;;;;;5071786;28;20653;-65
2021/12/08 06:16:37;;;;;;;4.83;3.40;;;3.60;99.90;;;;;;5071429;28;20246;-65
2021/12/08 06:19:06;;;;;;;3.80;2.83;;;3.60;99.90;;;;;;5070846;28;20204;-66
2021/12/08 06:21:33;;;;;;;4.63;3.10;;;3.60;99.90;;;;;;5071224;28;20220;-65
2021/12/08 06:24:05;;;;;;;8.03;3.30;;;3.60;99.90;;;;;;5071027;28;20206;-66
2021/12/08 06:26:32;;;;;;;6.57;2.77;;;3.60;99.90;;;;;;5071238;28;20222;-65
2021/12/08 06:28:59;;;;;;;8.30;3.73;;;3.60;99.90;;;;;;5070549;28;20205;-65
2021/12/08 06:31:29;;;;;;;8.80;3.20;;;3.60;99.90;;;;;;5070187;28;20198;-65
2021/12/08 06:33:57;;;;;;;6.37;3.20;;;3.70;99.90;;;;;;5070490;28;20226;-65
2021/12/08 06:36:26;;;;;;;7.17;3.40;;;3.70;99.90;;;;;;5071312;28;20198;-65
2021/12/08 06:38:54;;;;;;;4.97;3.60;;;3.60;99.90;;;;;;5071853;28;20206;-65
2021/12/08 06:41:26;;;;;;;5.73;3.23;;;3.70;99.90;;;;;;5071355;28;20202;-66
2021/12/08 06:43:56;;;;;;;6.97;3.70;;;3.70;99.90;;;;;;5075000;28;20264;-65
2021/12/08 06:46:24;;;;;;;4.70;2.90;;;3.70;99.90;;;;;;5074721;28;20218;-66
2021/12/08 06:48:55;;;;;;;6.33;3.33;;;3.70;99.90;;;;;;5074703;28;20210;-65
2021/12/08 06:51:25;;;;;;;5.10;3.13;;;3.70;99.90;;;;;;5074962;28;20212;-66
2021/12/08 06:53:57;;;;;;;5.80;3.30;;;3.70;99.90;;;;;;5074268;28;20206;-66
2021/12/08 06:56:30;;;;;;;4.83;3.40;;;3.70;99.90;;;;;;5074187;28;20202;-65
2021/12/08 06:59:00;;;;;;;5.43;2.90;;;3.70;99.90;;;;;;5074212;28;20221;-65
2021/12/08 07:01:39;;;;;;;6.03;2.80;;;3.80;99.90;;;;;;5074253;28;20213;-66
2021/12/08 07:04:24;;;;;;;6.27;3.60;;;3.70;99.90;;;;;;5073417;28;20300;-66
2021/12/08 07:07:00;;;;;;;4.93;3.33;;;3.70;99.90;;;;;;5074462;28;20232;-66
2021/12/08 07:09:32;;;;;;;4.57;3.30;;;3.70;99.90;;;;;;5074136;28;20187;-65
2021/12/08 07:12:05;;;;;;;40.23;21.47;;;3.70;99.90;;;;;;5073609;28;20205;-66
2021/12/08 07:14:33;;;;;;;5.27;3.60;;;3.70;99.90;;;;;;5074438;28;20297;-66
2021/12/08 07:17:05;;;;;;;5.80;3.20;;;3.80;99.90;;;;;;5073777;28;20660;-66
2021/12/08 07:19:43;;;;;;;6.33;3.30;;;3.80;99.90;;;;;;5074396;28;20639;-66
2021/12/08 07:22:14;;;;;;;4.90;3.30;;;3.70;99.90;;;;;;5080190;28;20228;-66
2021/12/08 07:24:44;;;;;;;4.50;3.37;;;3.70;99.90;;;;;;5075156;28;20205;-66
2021/12/08 07:27:19;;;;;;;5.70;3.70;;;3.80;99.90;;;;;;5080668;28;20248;-66
2021/12/08 07:29:49;;;;;;;5.53;3.53;;;3.80;99.90;;;;;;5076726;28;20558;-66
2021/12/08 07:32:20;;;;;;;4.43;3.30;;;3.80;99.90;;;;;;5070511;28;20229;-66
2021/12/08 07:34:50;;;;;;;8.33;3.93;;;3.80;99.90;;;;;;5075150;28;20198;-66
2021/12/08 07:37:22;;;;;;;5.70;3.70;;;3.80;99.90;;;;;;5078688;28;20228;-66
2021/12/08 07:39:55;;;;;;;4.97;3.47;;;3.80;99.90;;;;;;5077643;28;20586;-66
2021/12/08 07:42:29;;;;;;;4.63;3.60;;;3.80;99.90;;;;;;5075250;28;20198;-66
2021/12/08 07:45:00;;;;;;;5.80;3.83;;;3.80;99.90;;;;;;5077333;28;20210;-66
2021/12/08 07:47:29;;;;;;;5.23;3.30;;;3.80;99.90;;;;;;5077459;28;20710;-66
2021/12/08 07:49:58;;;;;;;5.47;3.47;;;3.90;99.90;;;;;;5077147;28;20675;-66
2021/12/08 07:52:30;;;;;;;4.47;3.43;;;3.80;99.90;;;;;;5075062;28;20577;-66
2021/12/08 07:54:58;;;;;;;5.90;3.30;;;3.80;99.90;;;;;;5075258;28;20202;-65
2021/12/08 07:57:29;;;;;;;7.40;3.20;;;3.90;99.90;;;;;;5074680;28;20217;-66
2021/12/08 08:00:00;;;;;;;7.50;4.17;;;3.90;99.90;;;;;;5076758;28;20198;-66
2021/12/08 08:02:28;;;;;;;6.53;3.70;;;3.90;99.90;;;;;;5074982;28;20202;-65
2021/12/08 08:04:58;;;;;;;4.73;3.20;;;3.90;99.90;;;;;;5075646;28;20581;-66
2021/12/08 08:07:26;;;;;;;6.27;3.53;;;3.90;99.90;;;;;;5071993;28;20218;-66
2021/12/08 08:10:00;;;;;;;6.10;3.80;;;3.90;99.90;;;;;;5080830;28;20215;-66
2021/12/08 08:12:32;;;;;;;6.70;4.03;;;4.00;99.90;;;;;;5076418;28;20205;-65
2021/12/08 08:15:01;;;;;;;5.60;3.97;;;3.90;99.90;;;;;;5072242;28;20284;-65
2021/12/08 08:17:32;;;;;;;7.33;4.00;;;3.90;99.90;;;;;;5078671;28;20618;-66
2021/12/08 08:20:00;;;;;;;6.70;3.77;;;3.90;99.90;;;;;;5072333;28;20686;-66
2021/12/08 08:22:30;;;;;;;5.83;3.60;;;4.00;99.90;;;;;;5074443;28;20216;-66
2021/12/08 08:25:01;;;;;;;6.40;4.03;;;4.00;99.90;;;;;;5074606;28;20214;-66
2021/12/08 08:27:29;;;;;;;4.67;3.53;;;3.90;99.90;;;;;;5075897;28;20237;-66
2021/12/08 08:29:58;;;;;;;6.20;3.90;;;3.90;99.90;;;;;;5070657;28;20221;-65
2021/12/08 08:32:32;;;;;;;6.17;3.77;;;4.00;99.90;;;;;;5079985;28;20206;-66
2021/12/08 08:35:04;;;;;;;9.27;3.97;;;4.00;99.90;;;;;;5074115;28;20274;-66
2021/12/08 08:37:32;;;;;;;7.53;3.90;;;4.00;99.90;;;;;;5072733;28;20198;-66
2021/12/08 08:40:03;;;;;;;6.80;3.77;;;4.10;99.90;;;;;;5078453;28;20682;-66
2021/12/08 08:42:34;;;;;;;6.20;4.07;;;4.10;99.90;;;;;;5078269;28;20664;-66
2021/12/08 08:45:05;;;;;;;7.23;4.07;;;4.10;99.90;;;;;;5073805;28;20263;-66
2021/12/08 08:47:37;;;;;;;5.87;4.23;;;4.20;99.90;;;;;;5078066;28;20222;-66
2021/12/08 08:50:06;;;;;;;4.73;3.50;;;4.30;99.90;;;;;;5085500;28;20622;-66
2021/12/08 08:52:37;;;;;;;9.03;4.20;;;4.30;99.90;;;;;;5073249;28;20200;-66
2021/12/08 08:55:10;;;;;;;7.17;4.07;;;4.30;99.90;;;;;;5074274;28;20647;-66
2021/12/08 08:57:40;;;;;;;6.40;4.27;;;4.40;99.90;;;;;;5071963;28;20207;-66
2021/12/08 09:00:14;;;;;;;6.53;5.23;;;4.30;99.90;;;;;;5073615;28;20209;-66
2021/12/08 09:02:41;;;;;;;8.43;5.03;;;4.30;99.90;;;;;;5070626;28;20206;-66
2021/12/08 09:05:16;;;;;;;7.90;4.70;;;4.40;99.90;;;;;;5077093;28;20201;-66
2021/12/08 09:07:46;;;;;;;9.83;4.83;;;4.40;99.90;;;;;;5074533;28;20226;-66
2021/12/08 09:10:19;;;;;;;8.27;4.23;;;4.50;99.90;;;;;;5076393;28;20210;-66
2021/12/08 09:12:52;;;;;;;8.27;4.20;;;4.50;99.90;;;;;;5080313;28;20698;-66
2021/12/08 09:15:23;;;;;;;6.10;4.80;;;4.50;99.90;;;;;;5076530;28;20296;-66
2021/12/08 09:17:56;;;;;;;7.70;4.63;;;4.40;99.90;;;;;;5073885;28;20212;-66
2021/12/08 09:20:29;;;;;;;11.43;7.33;;;4.40;99.90;;;;;;5075508;28;20559;-66
2021/12/08 09:23:00;;;;;;;12.07;5.60;;;4.50;99.90;;;;;;5079028;28;20210;-66
2021/12/08 09:25:33;;;;;;;9.37;5.40;;;4.50;99.90;;;;;;5073253;28;20688;-66
2021/12/08 09:28:05;;;;;;;6.13;4.47;;;4.60;99.90;;;;;;5075009;28;20803;-66
2021/12/08 09:30:36;;;;;;;6.23;3.73;;;4.60;99.90;;;;;;5075003;28;20206;-66
2021/12/08 09:33:10;;;;;;;8.03;4.17;;;4.70;99.90;;;;;;5072702;28;20203;-66
2021/12/08 09:35:41;;;;;;;8.70;3.80;;;4.70;99.90;;;;;;5073771;28;20198;-66
2021/12/08 09:38:11;;;;;;;8.07;4.50;;;4.80;99.90;;;;;;5072250;28;20234;-66
2021/12/08 09:40:43;;;;;;;7.97;4.20;;;4.80;99.90;;;;;;5076172;28;20197;-66
2021/12/08 09:43:17;;;;;;;6.10;4.20;;;4.80;99.90;;;;;;5077475;28;20201;-66
2021/12/08 09:45:49;;;;;;;9.23;5.30;;;4.70;99.90;;;;;;5082980;28;20653;-66
2021/12/08 09:48:17;;;;;;;11.20;6.40;;;4.80;99.90;;;;;;5073023;28;20578;-66
2021/12/08 09:50:44;;;;;;;6.37;4.23;;;4.80;99.90;;;;;;5073251;28;20216;-66
2021/12/08 09:53:11;;;;;;;7.67;4.30;;;4.90;99.90;;;;;;5080945;28;20232;-66
2021/12/08 09:55:38;;;;;;;7.53;3.97;;;5.00;99.90;;;;;;5075082;28;20198;-66
2021/12/08 09:58:06;;;;;;;5.63;3.60;;;5.00;99.90;;;;;;5073898;28;20202;-66
2021/12/08 10:00:37;;;;;;;6.97;3.70;;;5.00;99.90;;;;;;5075374;28;20641;-66
2021/12/08 10:03:05;;;;;;;8.77;4.13;;;5.10;99.90;;;;;;5077464;28;20202;-66
2021/12/08 10:05:36;;;;;;;6.07;3.57;;;5.10;99.90;;;;;;5077220;28;20214;-66
2021/12/08 10:08:04;;;;;;;6.17;3.20;;;5.10;99.90;;;;;;5076278;28;20218;-66
2021/12/08 10:10:32;;;;;;;6.30;3.17;;;5.10;99.90;;;;;;5072936;28;20586;-66
2021/12/08 10:12:59;;;;;;;7.07;3.67;;;5.10;99.90;;;;;;5070280;28;20272;-66
2021/12/08 10:15:27;;;;;;;6.63;4.07;;;5.20;99.90;;;;;;5077967;28;20197;-66
2021/12/08 10:17:57;;;;;;;7.03;4.27;;;5.20;99.90;;;;;;5080114;28;20253;-68
2021/12/08 10:20:27;;;;;;;7.00;3.90;;;5.20;99.90;;;;;;5076171;28;20209;-67
2021/12/08 10:23:15;;;;;;;7.73;4.13;;;5.20;99.90;;;;;;5092324;28;20583;-66
2021/12/08 10:25:44;;;;;;;9.63;4.13;;;5.20;99.90;;;;;;5052507;28;20673;-66
2021/12/08 10:28:13;;;;;;;9.33;4.50;;;5.20;99.90;;;;;;5053397;28;20223;-66
2021/12/08 10:30:46;;;;;;;10.80;5.00;;;5.30;99.90;;;;;;5059852;28;20210;-67
2021/12/08 10:33:46;;;;;;;8.23;4.00;;;5.30;99.90;;;;;;5072189;28;20253;-67
2021/12/08 10:36:18;;;;;;;7.60;3.93;;;5.30;99.90;;;;;;5073249;28;20202;-68
2021/12/08 10:38:45;;;;;;;10.73;4.40;;;5.20;99.90;;;;;;5072684;28;20671;-66
2021/12/08 10:41:12;;;;;;;8.40;4.50;;;5.30;99.90;;;;;;5072594;28;20206;-68
2021/12/08 10:43:39;;;;;;;11.97;5.07;;;5.30;99.90;;;;;;5072319;28;20206;-67
2021/12/08 10:46:08;;;;;;;6.40;3.53;;;5.30;99.90;;;;;;5073138;28;20202;-67
2021/12/08 10:48:42;;;;;;;7.43;3.77;;;5.40;99.90;;;;;;5072108;28;20229;-67
2021/12/08 10:54:26;;;;;;;5.93;3.20;;;5.40;99.90;;;;;;5071039;28;20622;-67
2021/12/08 10:56:56;;;;;;;5.47;3.50;;;5.40;99.90;;;;;;5073198;28;20712;-67
2021/12/08 10:59:25;;;;;;;7.60;4.17;;;5.60;99.90;;;;;;5073029;28;20202;-67
2021/12/08 11:01:53;;;;;;;8.03;4.10;;;5.70;99.90;;;;;;5072854;28;20206;-66
2021/12/08 11:04:30;;;;;;;12.43;4.70;;;5.80;99.90;;;;;;5073187;28;20214;-66
2021/12/08 11:07:06;;;;;;;5.17;3.27;;;5.80;99.90;;;;;;5072723;28;20622;-67
2021/12/08 11:09:40;;;;;;;6.47;3.43;;;5.90;99.90;;;;;;5072707;28;20579;-67
2021/12/08 11:12:08;;;;;;;6.90;3.80;;;6.00;99.90;;;;;;5072524;28;20204;-66
2021/12/08 11:14:44;;;;;;;6.93;3.90;;;6.10;99.90;;;;;;5072531;28;20210;-69
2021/12/08 11:17:25;;;;;;;4.97;3.00;;;6.10;99.90;;;;;;5069114;28;20210;-67
2021/12/08 11:20:15;;;;;;;6.07;3.23;;;6.00;99.90;;;;;;5051932;28;20210;-66
2021/12/08 11:22:43;;;;;;;4.53;3.30;;;6.10;99.90;;;;;;5065108;28;20577;-67
2021/12/08 11:25:21;;;;;;;6.23;3.37;;;6.10;99.90;;;;;;5071902;28;20213;-68
2021/12/08 11:27:48;;;;;;;8.17;3.23;;;6.00;99.90;;;;;;5072988;28;20647;-65
2021/12/08 11:30:19;;;;;;;5.40;3.40;;;6.00;99.90;;;;;;5074125;28;20212;-65
2021/12/08 11:32:46;;;;;;;5.03;3.13;;;6.00;99.90;;;;;;5071918;28;20217;-66
2021/12/08 11:35:21;;;;;;;4.97;2.93;;;6.10;99.90;;;;;;5069878;28;20233;-66
2021/12/08 11:37:58;;;;;;;4.73;3.20;;;6.10;99.90;;;;;;5071743;28;20202;-65
2021/12/08 11:40:25;;;;;;;3.60;2.77;;;6.00;99.90;;;;;;5078748;28;20255;-65
2021/12/08 11:42:53;;;;;;;5.97;3.00;;;6.10;99.90;;;;;;5070540;28;20562;-66
2021/12/08 11:45:21;;;;;;;4.70;3.13;;;6.10;99.90;;;;;;5070787;28;20652;-66
2021/12/08 11:47:48;;;;;;;8.20;3.03;;;6.10;99.90;;;;;;5069574;28;20222;-66
2021/12/08 11:50:19;;;;;;;5.43;3.23;;;6.10;99.90;;;;;;5070948;28;20206;-66
2021/12/08 11:52:52;;;;;;;5.63;3.43;;;6.10;99.90;;;;;;5070849;28;20234;-66
2021/12/08 11:55:21;;;;;;;6.60;3.10;;;6.10;99.90;;;;;;5071263;28;20310;-66
2021/12/08 11:57:53;;;;;;;3.17;2.80;;;6.10;99.90;;;;;;5070732;28;20457;-66
2021/12/08 12:00:22;;;;;;;4.17;2.80;;;6.10;99.90;;;;;;5070983;28;20309;-67
2021/12/08 12:02:55;;;;;;;6.53;3.37;;;6.20;99.90;;;;;;5069934;28;20661;-66
2021/12/08 12:05:25;;;;;;;4.70;3.53;;;6.20;99.90;;;;;;5071322;28;20217;-67
2021/12/08 12:07:55;;;;;;;5.10;3.33;;;6.20;99.90;;;;;;5070693;28;20222;-67
2021/12/08 12:10:24;;;;;;;8.60;3.23;;;6.20;99.90;;;;;;5070220;28;20203;-68
2021/12/08 12:12:51;;;;;;;5.70;3.27;;;6.20;99.90;;;;;;5069955;28;20212;-67
2021/12/08 12:15:21;;;;;;;7.93;3.37;;;6.10;99.90;;;;;;5070317;28;20206;-67
2021/12/08 12:17:48;;;;;;;4.50;2.90;;;6.10;99.90;;;;;;5070007;28;20690;-67
2021/12/08 12:20:21;;;;;;;4.93;3.20;;;6.10;99.90;;;;;;5070015;28;20562;-67
2021/12/08 12:23:20;;;;;;;4.67;3.00;;;6.00;99.90;;;;;;5070527;28;20663;-67
2021/12/08 12:26:09;;;;;;;5.03;3.50;;;6.00;99.90;;;;;;5066075;28;20206;-67
2021/12/08 12:29:03;;;;;;;8.17;4.07;;;5.90;99.90;;;;;;5070249;28;20661;-66
2021/12/08 12:31:40;;;;;;;5.87;3.77;;;5.90;99.90;;;;;;5070332;28;20210;-66
2021/12/08 12:34:24;;;;;;;9.33;4.13;;;5.90;99.90;;;;;;5069946;28;20220;-66
2021/12/08 12:36:51;;;;;;;8.20;5.53;;;5.90;99.90;;;;;;5070558;28;20766;-66
2021/12/08 12:39:21;;;;;;;4.77;3.70;;;5.90;99.90;;;;;;5069448;28;20542;-66
2021/12/08 12:42:01;;;;;;;7.47;3.40;;;5.80;99.90;;;;;;5069129;28;20202;-66
2021/12/08 12:44:30;;;;;;;6.00;3.50;;;5.80;99.90;;;;;;5070284;28;20252;-68
2021/12/08 12:47:23;;;;;;;6.70;3.50;;;5.80;99.90;;;;;;5069653;28;20238;-66
2021/12/08 12:50:18;;;;;;;6.80;3.50;;;5.80;99.90;;;;;;5069838;28;20229;-66
2021/12/08 12:52:49;;;;;;;5.33;3.30;;;5.70;99.90;;;;;;5069086;28;20210;-67
2021/12/08 12:55:18;;;;;;;7.23;3.93;;;5.70;99.90;;;;;;5070047;28;20666;-67
2021/12/08 12:58:10;;;;;;;6.00;3.70;;;5.70;99.90;;;;;;5060472;28;20210;-65
2021/12/08 13:00:40;;;;;;;7.97;3.63;;;5.70;99.90;;;;;;5089908;28;20210;-65
2021/12/08 13:03:08;;;;;;;4.90;3.10;;;5.70;99.90;;;;;;5080272;28;20566;-64
2021/12/08 13:05:50;;;;;;;4.33;3.23;;;5.70;99.90;;;;;;5069297;28;20202;-66
2021/12/08 13:08:30;;;;;;;4.80;2.70;;;5.80;99.90;;;;;;5069480;28;20225;-64
2021/12/08 13:10:59;;;;;;;6.13;3.07;;;5.80;99.90;;;;;;5070146;28;20218;-65
2021/12/08 13:13:27;;;;;;;4.27;2.97;;;5.80;99.90;;;;;;5069607;28;20225;-65
2021/12/08 13:15:54;;;;;;;6.00;3.03;;;5.80;99.90;;;;;;5067627;28;20303;-67
2021/12/08 13:18:23;;;;;;;5.60;2.90;;;5.80;99.90;;;;;;5069156;28;20198;-70
2021/12/08 13:20:55;;;;;;;4.50;3.03;;;5.80;99.90;;;;;;5069494;28;20224;-68
2021/12/08 13:23:27;;;;;;;4.63;3.20;;;5.80;99.90;;;;;;5069195;28;20232;-66
2021/12/08 13:25:59;;;;;;;5.33;2.97;;;5.80;99.90;;;;;;5069697;28;20642;-66
2021/12/08 13:28:33;;;;;;;5.27;3.53;;;5.80;99.90;;;;;;5068389;28;20817;-66
2021/12/08 13:31:12;;;;;;;4.67;2.90;;;5.80;99.90;;;;;;5077852;28;20577;-66
2021/12/08 13:33:41;;;;;;;5.97;3.30;;;5.70;99.90;;;;;;5086260;28;20250;-66
2021/12/08 13:36:35;;;;;;;5.07;3.20;;;5.60;99.90;;;;;;5070014;28;20574;-66
2021/12/08 13:39:20;;;;;;;7.47;3.70;;;5.60;99.90;;;;;;5074021;28;20205;-66
2021/12/08 13:41:59;;;;;;;7.17;3.73;;;5.50;99.90;;;;;;5074342;28;20210;-65
2021/12/08 13:44:34;;;;;;;5.53;3.43;;;5.40;99.90;;;;;;5074494;28;20577;-69
2021/12/08 13:47:02;;;;;;;8.47;4.10;;;5.30;99.90;;;;;;5070611;28;20206;-70
2021/12/08 13:49:34;;;;;;;8.43;4.10;;;5.30;99.90;;;;;;5074244;28;20214;-69